Time;durP1;ratioP1;P1;durP2;ratioP2;P2;SDS_P1;SDS_P2;PMS_P1;PMS_P2;Temp;Humidity;BMP_temperature;BMP_pressure;BME280_temperature;BME280_humidity;BME280_pressure;Samples;Min_cycle;Max_cycle;Signal;HPM_P1;HPM_P2
2021/07/30 00:00:07;;;;;;;6.88;3.97;;;691.80;1536.00;;;;;;5052079;28;20183;-78
2021/07/30 00:02:33;;;;;;;12.40;4.20;;;691.80;1536.00;;;;;;5052807;28;20460;-78
2021/07/30 00:04:59;;;;;;;12.32;3.88;;;691.70;1536.00;;;;;;5052463;28;20032;-79
2021/07/30 00:07:28;;;;;;;7.82;4.40;;;691.70;1536.00;;;;;;5069055;28;20025;-79
2021/07/30 00:09:54;;;;;;;8.80;3.83;;;691.60;1561.60;;;;;;5053639;28;20025;-78
2021/07/30 00:12:20;;;;;;;11.77;3.75;;;691.60;1536.00;;;;;;5053801;28;20025;-78
2021/07/30 00:14:46;;;;;;;10.00;3.78;;;691.50;1536.00;;;;;;5053581;28;20028;-78
2021/07/30 00:17:12;;;;;;;7.35;4.30;;;691.50;1536.00;;;;;;5053785;28;20082;-78
2021/07/30 00:19:38;;;;;;;14.63;3.97;;;691.50;1536.00;;;;;;5053492;28;20405;-78
2021/07/30 00:22:04;;;;;;;11.95;4.05;;;691.50;1536.00;;;;;;5051447;28;20087;-78
2021/07/30 00:24:30;;;;;;;12.25;3.75;;;691.50;1536.00;;;;;;5053746;28;20025;-79
2021/07/30 00:26:55;;;;;;;7.68;3.75;;;691.50;1536.00;;;;;;5053410;28;20386;-78
2021/07/30 00:29:21;;;;;;;14.85;4.03;;;691.40;1536.00;;;;;;5068827;28;20074;-78
2021/07/30 00:31:47;;;;;;;8.93;4.03;;;691.40;1536.00;;;;;;5053647;28;20028;-78
2021/07/30 00:34:13;;;;;;;8.27;4.25;;;691.40;1536.00;;;;;;5053650;28;20021;-76
2021/07/30 00:36:39;;;;;;;9.82;4.32;;;691.40;1536.00;;;;;;5053292;28;20055;-75
2021/07/30 00:39:05;;;;;;;8.73;3.80;;;691.40;1561.60;;;;;;5052186;28;20021;-76
2021/07/30 00:41:35;;;;;;;6.65;3.58;;;691.30;1561.60;;;;;;5051925;28;20183;-75
2021/07/30 00:44:02;;;;;;;6.88;3.80;;;691.30;1561.60;;;;;;5053350;28;20105;-76
2021/07/30 00:46:28;;;;;;;10.82;4.22;;;691.30;1587.20;;;;;;5053261;28;20040;-76
2021/07/30 00:48:55;;;;;;;14.95;4.72;;;691.30;1587.20;;;;;;5053221;28;20025;-76
2021/07/30 00:51:22;;;;;;;8.55;3.95;;;691.20;1587.20;;;;;;5053514;28;20024;-76
2021/07/30 00:53:49;;;;;;;7.93;3.78;;;666.50;1587.20;;;;;;5053049;28;20104;-76
2021/07/30 00:56:16;;;;;;;9.68;3.92;;;666.20;1612.80;;;;;;5053183;28;20432;-76
2021/07/30 00:58:43;;;;;;;13.00;4.40;;;666.30;1587.20;;;;;;5052650;28;20024;-77
2021/07/30 01:01:09;;;;;;;12.60;4.13;;;666.40;1587.20;;;;;;5073178;28;20032;-76
2021/07/30 01:03:35;;;;;;;8.23;4.32;;;666.30;1587.20;;;;;;5073103;28;20021;-76
2021/07/30 01:06:01;;;;;;;10.02;3.65;;;666.30;1561.60;;;;;;5073110;28;20028;-76
2021/07/30 01:08:27;;;;;;;6.00;3.80;;;666.40;1561.60;;;;;;5073048;28;20024;-76
2021/07/30 01:10:53;;;;;;;11.43;4.05;;;666.20;1561.60;;;;;;5055034;28;20469;-77
2021/07/30 01:13:21;;;;;;;7.32;4.10;;;666.40;1561.60;;;;;;5072943;28;20066;-76
2021/07/30 01:15:47;;;;;;;9.85;4.32;;;666.40;1561.60;;;;;;5055088;28;20117;-76
2021/07/30 01:18:12;;;;;;;5.10;3.85;;;666.40;1561.60;;;;;;5054934;28;20059;-76
2021/07/30 01:20:43;;;;;;;8.43;4.38;;;666.40;1561.60;;;;;;5073155;28;20041;-76
2021/07/30 01:23:10;;;;;;;9.57;4.70;;;666.30;1561.60;;;;;;5073035;28;20024;-77
2021/07/30 01:25:37;;;;;;;11.68;4.00;;;666.30;1561.60;;;;;;5072899;28;20146;-76
2021/07/30 01:28:04;;;;;;;7.55;4.25;;;666.40;1561.60;;;;;;5072905;28;20027;-77
2021/07/30 01:30:30;;;;;;;89.45;9.18;;;666.30;1561.60;;;;;;5054777;28;20033;-76
2021/07/30 01:32:56;;;;;;;12.00;4.38;;;666.40;1561.60;;;;;;5055949;28;20035;-77
2021/07/30 01:35:22;;;;;;;8.57;4.65;;;666.40;1561.60;;;;;;5076683;28;20020;-76
2021/07/30 01:37:48;;;;;;;9.48;4.57;;;666.40;1561.60;;;;;;5076646;28;20031;-77
2021/07/30 01:40:15;;;;;;;11.25;5.05;;;666.40;1536.00;;;;;;5076735;28;20380;-77
2021/07/30 01:42:41;;;;;;;10.13;3.92;;;666.40;1536.00;;;;;;5076479;28;20070;-77
2021/07/30 01:45:09;;;;;;;7.32;3.90;;;666.30;1536.00;;;;;;5058386;28;20044;-76
2021/07/30 01:47:35;;;;;;;8.45;5.15;;;666.30;1536.00;;;;;;5058425;28;20029;-77
2021/07/30 01:50:03;;;;;;;8.45;4.50;;;666.30;1536.00;;;;;;5076226;28;20031;-77
2021/07/30 01:52:29;;;;;;;10.20;4.70;;;666.30;1536.00;;;;;;5076172;28;20528;-76
2021/07/30 01:54:54;;;;;;;12.40;4.82;;;666.30;1536.00;;;;;;5076145;28;20116;-77
2021/07/30 01:57:20;;;;;;;10.65;5.13;;;666.30;1536.00;;;;;;5076047;28;20023;-77
2021/07/30 01:59:46;;;;;;;8.32;4.70;;;666.30;1536.00;;;;;;5057839;28;20226;-76
2021/07/30 02:02:12;;;;;;;7.28;5.05;;;666.30;1510.40;;;;;;5058058;28;20036;-77
2021/07/30 02:04:38;;;;;;;11.25;5.20;;;666.30;1510.40;;;;;;5076027;28;20052;-76
2021/07/30 02:07:04;;;;;;;10.98;5.43;;;666.10;1510.40;;;;;;5075926;28;20389;-77
2021/07/30 02:09:33;;;;;;;16.27;5.40;;;666.20;1536.00;;;;;;5075923;28;20059;-76
2021/07/30 02:11:59;;;;;;;13.40;5.60;;;666.20;1536.00;;;;;;5057870;28;20028;-76
2021/07/30 02:14:27;;;;;;;13.80;5.60;;;666.10;1536.00;;;;;;5058433;28;20028;-77
2021/07/30 02:16:55;;;;;;;10.75;5.78;;;666.10;1536.00;;;;;;5075821;28;20473;-77
2021/07/30 02:19:22;;;;;;;15.88;5.78;;;666.00;1536.00;;;;;;5075993;28;20013;-76
2021/07/30 02:21:50;;;;;;;8.90;6.07;;;666.00;1536.00;;;;;;5075746;28;20420;-76
2021/07/30 02:24:16;;;;;;;11.73;6.47;;;666.00;1536.00;;;;;;5075720;28;20066;-77
2021/07/30 02:26:42;;;;;;;14.52;6.95;;;665.90;1536.00;;;;;;5074374;28;20029;-75
2021/07/30 02:29:08;;;;;;;8.32;6.38;;;665.90;1536.00;;;;;;5057716;28;20568;-77
2021/07/30 02:31:34;;;;;;;11.82;6.32;;;666.00;1536.00;;;;;;5075557;28;20144;-76
2021/07/30 02:34:00;;;;;;;12.82;7.18;;;666.00;1536.00;;;;;;5075564;28;20457;-77
2021/07/30 02:36:26;;;;;;;9.75;5.93;;;666.00;1536.00;;;;;;5075480;28;20389;-76
2021/07/30 02:38:52;;;;;;;12.65;6.35;;;665.90;1536.00;;;;;;5075091;28;20024;-76
2021/07/30 02:41:18;;;;;;;12.65;6.68;;;665.90;1536.00;;;;;;5074713;28;20032;-75
2021/07/30 02:43:45;;;;;;;14.15;6.75;;;665.80;1561.60;;;;;;5056107;28;20093;-76
2021/07/30 02:46:14;;;;;;;10.15;6.57;;;665.90;1561.60;;;;;;5055874;28;20075;-76
2021/07/30 02:48:40;;;;;;;13.10;6.57;;;665.80;1561.60;;;;;;5056359;28;20026;-77
2021/07/30 02:51:06;;;;;;;16.35;6.65;;;665.80;1561.60;;;;;;5056103;28;20024;-76
2021/07/30 02:53:31;;;;;;;13.63;7.22;;;665.80;1561.60;;;;;;5056155;28;20028;-77
2021/07/30 02:55:57;;;;;;;13.20;6.07;;;665.80;1561.60;;;;;;5074341;28;20020;-77
2021/07/30 02:58:23;;;;;;;18.50;6.80;;;665.70;1561.60;;;;;;5075262;28;20021;-77
2021/07/30 03:00:49;;;;;;;16.17;7.53;;;665.70;1561.60;;;;;;5053658;28;20057;-77
2021/07/30 03:03:15;;;;;;;15.27;7.57;;;665.70;1561.60;;;;;;5054675;28;20108;-77
2021/07/30 03:05:41;;;;;;;13.65;6.75;;;665.70;1561.60;;;;;;5055150;28;20039;-76
2021/07/30 03:08:07;;;;;;;14.88;7.25;;;665.80;1561.60;;;;;;5055098;28;20029;-77
2021/07/30 03:10:33;;;;;;;15.05;7.10;;;665.70;1561.60;;;;;;5053717;28;20477;-76
2021/07/30 03:12:59;;;;;;;18.35;6.85;;;665.70;1561.60;;;;;;5055267;28;20052;-77
2021/07/30 03:15:25;;;;;;;15.98;6.53;;;665.70;1536.00;;;;;;5053723;28;20025;-77
2021/07/30 03:17:51;;;;;;;15.90;6.07;;;665.70;1536.00;;;;;;5054824;28;20492;-77
2021/07/30 03:20:16;;;;;;;12.82;7.68;;;665.70;1536.00;;;;;;5053425;28;20032;-77
2021/07/30 03:22:42;;;;;;;13.85;6.35;;;665.60;1536.00;;;;;;5053491;28;20099;-77
2021/07/30 03:25:08;;;;;;;14.95;7.03;;;665.60;1561.60;;;;;;5054791;28;20029;-77
2021/07/30 03:27:34;;;;;;;17.15;7.78;;;665.60;1561.60;;;;;;5054722;28;20032;-76
2021/07/30 03:30:00;;;;;;;18.98;7.80;;;665.60;1561.60;;;;;;5054896;28;20021;-77
2021/07/30 03:32:26;;;;;;;18.00;8.15;;;665.60;1536.00;;;;;;5054514;28;20021;-76
2021/07/30 03:34:52;;;;;;;21.77;8.10;;;665.60;1561.60;;;;;;5054903;28;20025;-76
2021/07/30 03:37:18;;;;;;;22.35;7.20;;;665.60;1561.60;;;;;;5054468;28;20025;-77
2021/07/30 03:39:44;;;;;;;14.25;7.63;;;665.60;1561.60;;;;;;5054510;28;20025;-76
2021/07/30 03:42:10;;;;;;;17.73;7.05;;;665.60;1561.60;;;;;;5054481;28;20417;-77
2021/07/30 03:44:36;;;;;;;13.60;7.35;;;665.60;1561.60;;;;;;5053176;28;20074;-77
2021/07/30 03:47:03;;;;;;;16.67;8.25;;;640.80;1561.60;;;;;;5054346;28;20108;-77
2021/07/30 03:49:29;;;;;;;22.00;8.32;;;640.80;1536.00;;;;;;5054240;28;20025;-76
2021/07/30 03:51:55;;;;;;;21.10;8.77;;;640.70;1561.60;;;;;;5052967;28;20032;-76
2021/07/30 03:54:20;;;;;;;21.35;9.35;;;640.80;1536.00;;;;;;5054314;28;20021;-77
2021/07/30 03:56:46;;;;;;;28.90;9.10;;;640.80;1561.60;;;;;;5053153;28;20098;-77
2021/07/30 03:59:12;;;;;;;23.48;10.30;;;640.80;1561.60;;;;;;5058882;28;20051;-77
2021/07/30 04:01:47;;;;;;;19.73;10.95;;;640.70;1561.60;;;;;;5074109;28;20102;-76
2021/07/30 04:04:16;;;;;;;21.48;11.18;;;640.70;1561.60;;;;;;5073992;28;20024;-77
2021/07/30 04:06:47;;;;;;;20.02;10.82;;;640.70;1561.60;;;;;;5055955;28;20028;-77
2021/07/30 04:09:14;;;;;;;20.23;11.07;;;640.80;1561.60;;;;;;5074045;28;20047;-77
2021/07/30 04:11:40;;;;;;;26.15;12.75;;;640.70;1561.60;;;;;;5073925;28;20038;-76
2021/07/30 04:14:07;;;;;;;30.88;13.05;;;640.70;1561.60;;;;;;5056114;28;20078;-76
2021/07/30 04:16:34;;;;;;;21.10;10.68;;;640.70;1561.60;;;;;;5055763;28;20029;-76
2021/07/30 04:19:01;;;;;;;17.52;8.70;;;640.80;1561.60;;;;;;5055799;28;20532;-77
2021/07/30 04:21:27;;;;;;;15.45;7.60;;;640.80;1561.60;;;;;;5073555;28;20488;-77
2021/07/30 04:23:54;;;;;;;18.48;7.70;;;640.80;1536.00;;;;;;5073710;28;20025;-76
2021/07/30 04:26:19;;;;;;;14.82;8.07;;;640.80;1536.00;;;;;;5055677;28;20039;-77
2021/07/30 04:28:45;;;;;;;14.75;7.97;;;640.80;1536.00;;;;;;5073633;28;20021;-76
2021/07/30 04:31:11;;;;;;;15.57;7.05;;;640.80;1561.60;;;;;;5073783;28;20035;-77
2021/07/30 04:33:37;;;;;;;13.98;7.45;;;640.80;1561.60;;;;;;5055615;28;20020;-77
2021/07/30 04:36:03;;;;;;;33.22;8.68;;;640.80;1561.60;;;;;;5073546;28;20024;-76
2021/07/30 04:38:29;;;;;;;22.80;7.75;;;640.80;1561.60;;;;;;5055490;28;20047;-76
2021/07/30 04:40:55;;;;;;;25.77;8.10;;;640.80;1561.60;;;;;;5055506;28;20497;-76
2021/07/30 04:43:21;;;;;;;27.35;8.07;;;640.80;1561.60;;;;;;5073456;28;20044;-76
2021/07/30 04:45:47;;;;;;;21.95;7.85;;;640.80;1561.60;;;;;;5055432;28;20440;-76
2021/07/30 04:48:13;;;;;;;27.50;8.18;;;640.90;1561.60;;;;;;5055362;28;20020;-76
2021/07/30 04:50:38;;;;;;;21.45;8.10;;;640.90;1561.60;;;;;;5073381;28;20025;-76
2021/07/30 04:53:05;;;;;;;46.80;8.70;;;640.90;1536.00;;;;;;5073275;28;20024;-76
2021/07/30 04:55:31;;;;;;;24.40;7.88;;;640.90;1536.00;;;;;;5055375;28;20029;-76
2021/07/30 04:57:58;;;;;;;28.73;8.38;;;665.60;1587.20;;;;;;5073323;28;20025;-76
2021/07/30 05:00:23;;;;;;;26.50;7.72;;;640.90;1561.60;;;;;;5055108;28;20052;-76
2021/07/30 05:02:53;;;;;;;17.35;7.63;;;665.60;1587.20;;;;;;5073452;28;20036;-76
2021/07/30 05:05:19;;;;;;;18.23;7.60;;;640.90;1561.60;;;;;;5073592;28;20021;-76
2021/07/30 05:07:45;;;;;;;12.75;7.43;;;665.60;1587.20;;;;;;5056247;28;20152;-76
2021/07/30 05:10:11;;;;;;;21.83;8.02;;;640.90;1561.60;;;;;;5077227;28;20419;-76
2021/07/30 05:12:37;;;;;;;13.02;7.28;;;640.90;1561.60;;;;;;5077376;28;20025;-76
2021/07/30 05:15:05;;;;;;;22.33;7.85;;;665.60;1587.20;;;;;;5059258;28;20021;-76
2021/07/30 05:17:31;;;;;;;26.15;9.05;;;665.60;1561.60;;;;;;5059202;28;20028;-76
2021/07/30 05:19:57;;;;;;;17.88;8.35;;;665.60;1587.20;;;;;;5077093;28;20078;-76
2021/07/30 05:22:23;;;;;;;13.15;7.80;;;665.60;1587.20;;;;;;5058976;28;20039;-76
2021/07/30 05:24:49;;;;;;;14.63;7.68;;;665.60;1587.20;;;;;;5077244;28;20021;-76
2021/07/30 05:27:15;;;;;;;10.35;6.70;;;665.70;1587.20;;;;;;5076921;28;20052;-76
2021/07/30 05:29:41;;;;;;;13.10;6.50;;;665.70;1561.60;;;;;;5059044;28;20047;-76
2021/07/30 05:32:07;;;;;;;11.93;6.18;;;665.80;1561.60;;;;;;5058923;28;20021;-76
2021/07/30 05:34:34;;;;;;;12.48;6.30;;;665.70;1561.60;;;;;;5058898;28;20078;-76
2021/07/30 05:37:00;;;;;;;18.83;5.80;;;665.70;1561.60;;;;;;5076776;28;20029;-75
2021/07/30 05:39:25;;;;;;;10.38;5.30;;;665.80;1561.60;;;;;;5058957;28;20032;-76
2021/07/30 05:41:51;;;;;;;13.20;7.03;;;665.80;1561.60;;;;;;5076538;28;20561;-76
2021/07/30 05:44:17;;;;;;;9.52;5.28;;;665.80;1536.00;;;;;;5058662;28;20020;-77
2021/07/30 05:46:43;;;;;;;16.02;5.57;;;665.90;1536.00;;;;;;5076530;28;20029;-75
2021/07/30 05:49:09;;;;;;;13.35;5.32;;;665.90;1536.00;;;;;;5075992;28;20384;-76
2021/07/30 05:51:37;;;;;;;10.80;5.28;;;665.90;1536.00;;;;;;5076293;28;20032;-76
2021/07/30 05:54:04;;;;;;;113.85;12.18;;;666.00;1561.60;;;;;;5076707;28;20020;-76
2021/07/30 06:07:36;;;;;;;11.18;5.10;;;666.10;1561.60;;;;;;5148918;27;20375;-75
2021/07/30 06:10:03;;;;;;;13.45;4.72;;;691.40;1459.20;;;;;;5152142;27;20091;-73
2021/07/30 06:12:29;;;;;;;13.43;4.75;;;691.30;1459.20;;;;;;5148541;27;20036;-72
2021/07/30 06:14:55;;;;;;;20.77;5.10;;;691.30;1484.80;;;;;;5140777;27;20023;-72
2021/07/30 06:17:22;;;;;;;9.90;4.95;;;691.30;1510.40;;;;;;5122873;27;20050;-73
2021/07/30 06:19:48;;;;;;;15.40;4.85;;;691.30;1484.80;;;;;;5142419;27;20076;-72
2021/07/30 06:22:14;;;;;;;17.35;4.95;;;691.30;1536.00;;;;;;5140562;27;20390;-72
2021/07/30 06:24:40;;;;;;;14.77;5.22;;;691.30;1536.00;;;;;;5141190;27;20089;-71
2021/07/30 06:27:06;;;;;;;9.82;4.60;;;691.30;1536.00;;;;;;5142379;27;20030;-72
2021/07/30 06:29:32;;;;;;;8.27;4.60;;;691.30;1510.40;;;;;;5121738;27;20034;-71
2021/07/30 06:31:59;;;;;;;14.80;4.88;;;691.40;1510.40;;;;;;5142683;27;20023;-76
2021/07/30 06:34:25;;;;;;;24.20;4.75;;;691.40;1536.00;;;;;;5148489;27;20483;-72
2021/07/30 06:36:55;;;;;;;11.45;4.60;;;691.50;1536.00;;;;;;5140254;27;20082;-76
2021/07/30 06:39:20;;;;;;;12.25;4.30;;;691.60;1510.40;;;;;;5121419;27;20016;-73
2021/07/30 06:41:46;;;;;;;8.43;4.10;;;691.70;1510.40;;;;;;5141905;27;20023;-76
2021/07/30 06:44:12;;;;;;;170.40;15.57;;;691.70;1484.80;;;;;;5149389;27;20471;-71
2021/07/30 06:46:38;;;;;;;26.63;5.10;;;691.80;1459.20;;;;;;5147809;27;20103;-72
2021/07/30 06:49:05;;;;;;;19.63;4.78;;;691.80;1484.80;;;;;;5151610;27;20413;-73
2021/07/30 06:51:30;;;;;;;38.85;5.38;;;691.90;1484.80;;;;;;5151338;27;20015;-72
2021/07/30 06:53:56;;;;;;;24.35;5.15;;;692.00;1484.80;;;;;;5136062;27;20034;-72
2021/07/30 06:56:22;;;;;;;168.15;12.38;;;692.10;1484.80;;;;;;5129625;28;20039;-73
2021/07/30 06:58:48;;;;;;;18.92;4.95;;;716.80;1510.40;;;;;;5130428;28;20069;-73
2021/07/30 07:01:14;;;;;;;14.20;4.50;;;716.80;1484.80;;;;;;5130717;28;20030;-71
2021/07/30 07:03:40;;;;;;;14.43;4.53;;;716.90;1484.80;;;;;;5130429;28;20100;-77
2021/07/30 07:06:06;;;;;;;12.35;4.68;;;716.90;1510.40;;;;;;5137278;27;20406;-73
2021/07/30 07:08:31;;;;;;;12.90;5.00;;;717.00;1459.20;;;;;;5136266;27;20030;-72
2021/07/30 07:10:57;;;;;;;20.60;4.45;;;717.00;1484.80;;;;;;5136985;27;20360;-71
2021/07/30 07:13:23;;;;;;;24.90;4.88;;;717.20;1459.20;;;;;;5137156;27;20027;-72
2021/07/30 07:15:49;;;;;;;21.83;4.28;;;717.30;1484.80;;;;;;5137317;27;20031;-72
2021/07/30 07:18:15;;;;;;;15.82;5.30;;;717.30;1459.20;;;;;;5118697;27;20030;-74
2021/07/30 07:20:41;;;;;;;24.90;4.68;;;717.30;1510.40;;;;;;5136647;27;20022;-72
2021/07/30 07:23:07;;;;;;;34.30;6.30;;;717.40;1484.80;;;;;;5137028;27;20028;-71
2021/07/30 07:25:33;;;;;;;13.75;4.57;;;717.50;1484.80;;;;;;5133654;27;20020;-72
2021/07/30 07:27:58;;;;;;;17.40;5.18;;;717.50;1433.60;;;;;;5132014;27;20034;-72
2021/07/30 07:30:24;;;;;;;20.67;4.85;;;717.50;1433.60;;;;;;5101947;28;20032;-72
2021/07/30 07:32:51;;;;;;;22.15;4.95;;;717.60;1433.60;;;;;;5114299;28;20096;-73
2021/07/30 07:35:17;;;;;;;15.43;3.95;;;717.70;1433.60;;;;;;5113640;28;20110;-73
2021/07/30 07:37:42;;;;;;;17.15;4.38;;;742.40;1459.20;;;;;;5114157;28;20107;-72
2021/07/30 07:40:08;;;;;;;13.75;4.05;;;742.40;1459.20;;;;;;5113937;28;20015;-74
2021/07/30 07:42:35;;;;;;;14.65;4.45;;;742.40;1382.40;;;;;;5113890;28;20016;-72
2021/07/30 07:45:01;;;;;;;7.00;3.38;;;742.50;1433.60;;;;;;5113916;28;20024;-72
2021/07/30 07:47:27;;;;;;;20.05;5.63;;;742.50;1408.00;;;;;;5114616;28;20374;-75
2021/07/30 07:49:53;;;;;;;7.75;3.92;;;742.50;1459.20;;;;;;5115755;28;20027;-72
2021/07/30 07:52:19;;;;;;;19.40;4.03;;;742.50;1408.00;;;;;;5114911;28;20387;-72
2021/07/30 07:54:46;;;;;;;12.70;3.95;;;742.60;1382.40;;;;;;5115738;28;20544;-72
2021/07/30 07:57:12;;;;;;;14.20;4.63;;;742.60;1433.60;;;;;;5115027;28;20036;-72
2021/07/30 07:59:38;;;;;;;16.17;3.90;;;742.60;1459.20;;;;;;5115567;28;20058;-72
2021/07/30 08:02:08;;;;;;;11.95;4.10;;;742.70;1356.80;;;;;;5115241;28;20051;-74
2021/07/30 08:04:34;;;;;;;8.23;3.55;;;742.70;1356.80;;;;;;5115225;28;20104;-74
2021/07/30 08:07:02;;;;;;;5.53;3.90;;;742.80;1356.80;;;;;;5115111;28;20063;-72
2021/07/30 08:09:31;;;;;;;15.52;3.88;;;742.80;1356.80;;;;;;5115079;28;20072;-83
2021/07/30 08:11:57;;;;;;;9.45;4.10;;;742.90;1331.20;;;;;;5115484;28;20379;-74
2021/07/30 08:14:23;;;;;;;7.38;3.42;;;742.90;1356.80;;;;;;5114596;28;20023;-73
2021/07/30 08:16:49;;;;;;;6.35;3.17;;;742.90;1331.20;;;;;;5115216;28;20036;-76
2021/07/30 08:19:16;;;;;;;5.45;3.03;;;743.00;1280.00;;;;;;5118433;27;20027;-75
2021/07/30 08:21:42;;;;;;;13.40;3.42;;;743.00;1280.00;;;;;;5125310;27;20022;-77
2021/07/30 08:24:08;;;;;;;10.10;3.30;;;743.00;1254.40;;;;;;5113874;27;20023;-76
2021/07/30 08:26:33;;;;;;;15.73;4.82;;;743.10;1254.40;;;;;;5124751;27;20367;-73
2021/07/30 08:28:59;;;;;;;6.47;3.17;;;743.10;1331.20;;;;;;5122534;27;20518;-76
2021/07/30 08:31:26;;;;;;;5.50;3.22;;;743.00;1280.00;;;;;;5123926;27;20045;-75
2021/07/30 08:33:52;;;;;;;7.40;4.57;;;743.10;1254.40;;;;;;5124297;27;20020;-75
2021/07/30 08:36:19;;;;;;;6.03;2.97;;;743.20;1305.60;;;;;;5122070;27;20028;-74
2021/07/30 08:38:45;;;;;;;11.68;4.78;;;743.20;1203.20;;;;;;5124231;27;20018;-74
2021/07/30 08:41:11;;;;;;;6.13;3.35;;;743.20;1331.20;;;;;;5123795;27;20024;-75
2021/07/30 08:43:37;;;;;;;4.75;3.45;;;743.30;1228.80;;;;;;5120170;27;20015;-75
2021/07/30 08:46:04;;;;;;;6.75;3.40;;;743.30;1254.40;;;;;;5124806;27;20370;-75
2021/07/30 08:48:30;;;;;;;10.30;4.68;;;743.30;1228.80;;;;;;5125195;27;20102;-75
2021/07/30 08:50:57;;;;;;;4.95;3.70;;;743.30;1331.20;;;;;;5125230;27;20106;-74
2021/07/30 08:53:25;;;;;;;13.00;4.10;;;768.00;1280.00;;;;;;5123675;27;20019;-77
2021/07/30 08:55:52;;;;;;;7.45;3.90;;;743.30;1331.20;;;;;;5123648;27;20479;-75
2021/07/30 08:58:18;;;;;;;9.77;4.13;;;743.30;1331.20;;;;;;5121775;27;20476;-75
2021/07/30 09:00:44;;;;;;;12.40;3.42;;;743.20;1382.40;;;;;;5123884;27;20011;-75
2021/07/30 09:03:10;;;;;;;7.10;4.20;;;743.10;1356.80;;;;;;5123164;27;20103;-75
2021/07/30 09:05:37;;;;;;;10.23;4.03;;;743.10;1382.40;;;;;;5124822;27;20110;-75
2021/07/30 09:08:05;;;;;;;29.48;5.22;;;743.10;1382.40;;;;;;5122029;27;20539;-75
2021/07/30 09:10:32;;;;;;;20.55;4.32;;;743.10;1408.00;;;;;;5124583;27;20059;-75
2021/07/30 09:13:21;;;;;;;11.35;3.58;;;743.10;1382.40;;;;;;5121807;27;20488;-74
2021/07/30 09:15:58;;;;;;;10.05;3.55;;;743.30;1254.40;;;;;;5122128;27;20038;-74
2021/07/30 09:18:45;;;;;;;15.23;3.95;;;768.00;1280.00;;;;;;5122403;27;20020;-77
2021/07/30 09:21:28;;;;;;;22.20;4.47;;;768.00;1356.80;;;;;;5122751;27;20054;-77
2021/07/30 09:23:59;;;;;;;32.03;4.80;;;768.00;1305.60;;;;;;5123401;27;20391;-74
2021/07/30 09:26:43;;;;;;;21.83;4.10;;;768.20;1305.60;;;;;;5123860;27;20027;-75
2021/07/30 09:29:14;;;;;;;15.27;3.78;;;768.10;1280.00;;;;;;5116362;27;20020;-74
2021/07/30 09:31:46;;;;;;;7.75;3.28;;;768.00;1331.20;;;;;;5111802;28;20115;-75
2021/07/30 09:34:20;;;;;;;8.98;3.55;;;768.00;1305.60;;;;;;5113697;28;20480;-75
2021/07/30 09:36:52;;;;;;;23.27;4.60;;;768.00;1280.00;;;;;;5113313;28;20031;-74
2021/07/30 09:39:21;;;;;;;20.15;4.30;;;768.00;1356.80;;;;;;5113868;28;20024;-75
2021/07/30 09:41:51;;;;;;;16.75;3.55;;;768.00;1382.40;;;;;;5113030;28;20383;-75
2021/07/30 09:44:17;;;;;;;6.53;3.30;;;768.00;1331.20;;;;;;5113566;28;20113;-75
2021/07/30 09:47:05;;;;;;;42.92;6.60;;;768.00;1203.20;;;;;;5128178;27;20023;-75
2021/07/30 09:49:45;;;;;;;29.67;8.00;;;768.00;1382.40;;;;;;5133259;27;20114;-75
2021/07/30 09:52:14;;;;;;;322.60;220.82;;;768.00;1382.40;;;;;;5133615;27;20030;-75
2021/07/30 09:54:48;;;;;;;221.30;148.10;;;768.10;1203.20;;;;;;5133691;28;20027;-76
2021/07/30 09:57:15;;;;;;;427.35;307.00;;;768.20;1203.20;;;;;;5132647;28;20031;-76
2021/07/30 09:59:43;;;;;;;66.03;46.72;;;768.20;1280.00;;;;;;5133825;28;20125;-77
2021/07/30 10:02:21;;;;;;;519.17;400.98;;;768.30;1254.40;;;;;;5134207;28;20420;-75
2021/07/30 10:04:51;;;;;;;186.90;140.57;;;768.20;1331.20;;;;;;5133333;28;20028;-75
2021/07/30 10:07:24;;;;;;;512.08;395.38;;;768.30;1280.00;;;;;;5133687;28;20035;-75
2021/07/30 10:10:07;;;;;;;465.35;362.80;;;768.20;1356.80;;;;;;5133202;28;20020;-77
2021/07/30 10:12:39;;;;;;;156.90;107.78;;;768.20;1331.20;;;;;;5134178;28;20116;-77
2021/07/30 10:15:06;;;;;;;345.83;244.70;;;768.20;1305.60;;;;;;5133152;28;20479;-75
2021/07/30 10:17:38;;;;;;;195.45;140.73;;;768.30;1356.80;;;;;;5133771;28;20383;-77
2021/07/30 10:20:05;;;;;;;137.45;93.20;;;768.20;1203.20;;;;;;5133193;28;20041;-75
2021/07/30 10:22:50;;;;;;;229.52;159.90;;;768.40;1228.80;;;;;;5133807;28;20068;-76
2021/07/30 10:25:20;;;;;;;192.40;134.40;;;768.30;1356.80;;;;;;5133103;28;20023;-76
2021/07/30 10:27:46;;;;;;;169.98;120.85;;;768.30;1331.20;;;;;;5133480;28;20015;-76
2021/07/30 10:30:14;;;;;;;167.48;113.32;;;768.30;1331.20;;;;;;5133479;28;20026;-77
2021/07/30 10:32:43;;;;;;;151.82;106.22;;;768.30;1356.80;;;;;;5133407;28;20080;-78
2021/07/30 10:35:10;;;;;;;38.40;27.10;;;768.20;1356.80;;;;;;5133287;28;20020;-75
2021/07/30 10:37:37;;;;;;;120.47;82.22;;;768.20;1254.40;;;;;;5133280;28;20055;-77
2021/07/30 10:40:17;;;;;;;99.00;70.68;;;768.20;1356.80;;;;;;5133674;28;20042;-77
2021/07/30 10:43:10;;;;;;;99.88;68.22;;;768.10;1356.80;;;;;;5134775;27;20029;-77
2021/07/30 10:45:38;;;;;;;93.97;67.43;;;768.10;1382.40;;;;;;5133282;27;20039;-78
2021/07/30 10:48:22;;;;;;;76.38;52.58;;;768.10;1382.40;;;;;;5136952;27;20016;-77
2021/07/30 10:50:59;;;;;;;58.75;40.95;;;768.00;1382.40;;;;;;5137526;27;20097;-76
2021/07/30 10:53:34;;;;;;;72.55;45.65;;;768.00;1356.80;;;;;;5136526;27;20042;-77
2021/07/30 10:56:01;;;;;;;70.47;36.55;;;768.00;1382.40;;;;;;5136800;27;20027;-74
2021/07/30 10:58:50;;;;;;;59.60;29.75;;;768.00;1382.40;;;;;;5127128;27;20027;-75
2021/07/30 11:01:21;;;;;;;49.95;28.75;;;768.00;1382.40;;;;;;5103910;27;20046;-77
2021/07/30 11:03:50;;;;;;;45.50;27.05;;;768.00;1382.40;;;;;;5116145;28;20100;-72
2021/07/30 11:06:21;;;;;;;34.92;19.20;;;743.30;1382.40;;;;;;5116255;28;20040;-74
2021/07/30 11:09:03;;;;;;;41.22;22.08;;;743.30;1382.40;;;;;;5121875;27;20063;-73
2021/07/30 11:11:44;;;;;;;47.40;24.70;;;743.30;1382.40;;;;;;5127085;27;20007;-74
2021/07/30 11:14:28;;;;;;;30.58;12.30;;;743.30;1408.00;;;;;;5124420;27;20387;-75
2021/07/30 11:16:56;;;;;;;44.90;11.75;;;743.30;1382.40;;;;;;5116164;28;20028;-75
2021/07/30 11:19:29;;;;;;;33.55;13.40;;;743.30;1356.80;;;;;;5116133;28;20027;-76
2021/07/30 11:21:56;;;;;;;;;;;743.30;1382.40;;;;;;5119003;27;20038;-76
2021/07/30 11:24:22;;;;;;;33.55;8.13;;;768.00;1408.00;;;;;;5125571;27;20279;-76
2021/07/30 11:26:48;;;;;;;38.15;10.77;;;768.00;1305.60;;;;;;5124818;27;20019;-77
2021/07/30 11:29:22;;;;;;;48.88;11.20;;;768.20;1331.20;;;;;;5122305;27;20019;-74
2021/07/30 11:32:07;;;;;;;29.55;9.90;;;768.20;1382.40;;;;;;5135946;27;20024;-74
2021/07/30 11:34:38;;;;;;;24.63;8.40;;;768.20;1331.20;;;;;;5136532;27;20019;-75
2021/07/30 11:37:07;;;;;;;32.33;8.88;;;768.20;1356.80;;;;;;5135711;27;20038;-74
2021/07/30 11:39:42;;;;;;;49.72;9.32;;;768.20;1356.80;;;;;;5136484;27;20060;-74
2021/07/30 11:42:09;;;;;;;46.28;8.02;;;768.20;1382.40;;;;;;5136018;27;20031;-74
2021/07/30 11:45:04;;;;;;;45.35;9.52;;;768.20;1331.20;;;;;;5136423;27;20027;-75
2021/07/30 11:47:33;;;;;;;22.45;7.60;;;768.20;1382.40;;;;;;5133583;27;20035;-74
2021/07/30 11:50:16;;;;;;;34.60;6.85;;;768.20;1356.80;;;;;;5136080;27;20030;-74
2021/07/30 11:52:42;;;;;;;37.40;6.70;;;768.20;1356.80;;;;;;5130955;27;20047;-74
2021/07/30 11:55:14;;;;;;;14.75;6.15;;;768.20;1356.80;;;;;;5125915;27;20035;-75
2021/07/30 11:57:39;;;;;;;18.38;5.85;;;768.20;1356.80;;;;;;5127439;27;20496;-77
2021/07/30 12:00:06;;;;;;;17.27;6.13;;;768.20;1356.80;;;;;;5135683;27;20102;-77
2021/07/30 12:02:32;;;;;;;24.60;5.28;;;768.20;1356.80;;;;;;5136132;27;20106;-75
2021/07/30 12:04:58;;;;;;;23.58;6.00;;;768.20;1356.80;;;;;;5135554;27;20150;-76
2021/07/30 12:07:33;;;;;;;19.08;4.97;;;768.20;1356.80;;;;;;5135726;27;20043;-77
2021/07/30 12:10:01;;;;;;;18.38;5.70;;;768.20;1356.80;;;;;;5127896;27;20054;-75
2021/07/30 12:12:30;;;;;;;25.65;5.68;;;768.20;1356.80;;;;;;5128493;27;20023;-75
2021/07/30 12:14:58;;;;;;;33.10;5.45;;;768.20;1382.40;;;;;;5135283;27;20023;-74
2021/07/30 12:17:30;;;;;;;18.15;5.55;;;768.20;1356.80;;;;;;5135295;27;20117;-74
2021/07/30 12:20:03;;;;;;;23.02;5.72;;;768.20;1356.80;;;;;;5135400;27;20437;-75
2021/07/30 12:22:55;;;;;;;22.67;5.55;;;768.30;1356.80;;;;;;5132191;27;20035;-75